Time;durP1;ratioP1;P1;durP2;ratioP2;P2;SDS_P1;SDS_P2;PMS_P1;PMS_P2;Temp;Humidity;BMP_temperature;BMP_pressure;BME280_temperature;BME280_humidity;BME280_pressure;Samples;Min_cycle;Max_cycle;Signal;HPM_P1;HPM_P2
2023/12/15 00:02:21;;;;;;;25.50;17.43;;;4.30;99.90;;;;;;5129381;27;20259;-65
2023/12/15 00:04:51;;;;;;;23.87;16.40;;;4.30;99.90;;;;;;5130271;27;20229;-63
2023/12/15 00:07:19;;;;;;;25.77;18.60;;;4.30;99.90;;;;;;5130223;27;20187;-63
2023/12/15 00:09:48;;;;;;;25.13;18.27;;;4.30;99.90;;;;;;5130196;28;20221;-63
2023/12/15 00:12:16;;;;;;;25.13;16.83;;;4.40;99.90;;;;;;5130385;27;20673;-62
2023/12/15 00:14:44;;;;;;;24.67;17.93;;;4.40;99.90;;;;;;5130290;28;20191;-64
2023/12/15 00:17:13;;;;;;;33.33;21.80;;;4.40;99.90;;;;;;5130087;27;20194;-64
2023/12/15 00:19:41;;;;;;;37.53;23.20;;;4.40;99.90;;;;;;5130025;27;20199;-65
2023/12/15 00:22:11;;;;;;;39.77;26.00;;;4.40;99.90;;;;;;5128632;28;20295;-62
2023/12/15 00:24:39;;;;;;;43.23;26.53;;;4.40;99.90;;;;;;5130064;27;20207;-64
2023/12/15 00:27:08;;;;;;;39.27;27.07;;;4.40;99.90;;;;;;5130074;28;20217;-64
2023/12/15 00:29:36;;;;;;;44.23;27.37;;;4.30;99.90;;;;;;5130125;27;20199;-62
2023/12/15 00:32:05;;;;;;;39.43;26.70;;;4.20;99.90;;;;;;5130289;27;20191;-66
2023/12/15 00:34:33;;;;;;;42.00;27.10;;;4.20;99.90;;;;;;5130007;28;20191;-63
2023/12/15 00:37:02;;;;;;;36.93;23.20;;;4.20;99.90;;;;;;5130120;27;20574;-63
2023/12/15 00:39:31;;;;;;;35.60;23.63;;;4.20;99.90;;;;;;5130195;28;20653;-62
2023/12/15 00:42:00;;;;;;;36.53;22.90;;;4.30;99.90;;;;;;5128237;28;20633;-63
2023/12/15 00:44:28;;;;;;;36.70;23.67;;;4.40;99.90;;;;;;5129961;28;20199;-61
2023/12/15 00:46:56;;;;;;;34.37;21.97;;;4.30;99.90;;;;;;5129646;28;20683;-64
2023/12/15 00:49:25;;;;;;;35.83;22.40;;;4.20;99.90;;;;;;5129925;28;20228;-63
2023/12/15 00:51:54;;;;;;;31.03;20.50;;;4.30;99.90;;;;;;5129393;27;20267;-62
2023/12/15 00:54:22;;;;;;;26.23;19.30;;;4.30;99.90;;;;;;5129980;27;20306;-62
2023/12/15 00:56:52;;;;;;;19.43;13.93;;;4.30;99.90;;;;;;5129855;28;20194;-63
2023/12/15 00:59:20;;;;;;;20.97;15.37;;;4.30;99.90;;;;;;5128434;28;20206;-64
2023/12/15 01:01:48;;;;;;;23.17;15.57;;;4.40;99.90;;;;;;5129650;28;20669;-63
2023/12/15 01:04:17;;;;;;;21.70;14.57;;;4.50;99.90;;;;;;5129622;28;20272;-63
2023/12/15 01:06:45;;;;;;;22.53;14.63;;;4.50;99.90;;;;;;5129539;27;20240;-65
2023/12/15 01:09:14;;;;;;;17.43;13.07;;;4.60;99.90;;;;;;5129677;28;20676;-62
2023/12/15 01:11:42;;;;;;;16.83;13.17;;;4.50;99.90;;;;;;5129852;28;20203;-64
2023/12/15 01:14:12;;;;;;;18.80;13.33;;;4.30;99.90;;;;;;5131657;27;20525;-64
2023/12/15 01:16:46;;;;;;;19.50;13.37;;;4.20;99.90;;;;;;5133434;27;20233;-62
2023/12/15 01:19:15;;;;;;;20.03;13.67;;;4.30;99.90;;;;;;5133435;27;20191;-62
2023/12/15 01:21:43;;;;;;;18.30;13.23;;;4.40;99.90;;;;;;5133108;27;20199;-63
2023/12/15 01:24:12;;;;;;;17.27;12.03;;;4.40;99.90;;;;;;5133314;27;20417;-65
2023/12/15 01:26:40;;;;;;;15.50;11.70;;;4.40;99.90;;;;;;5133029;27;20198;-64
2023/12/15 01:29:09;;;;;;;18.13;11.80;;;4.30;99.90;;;;;;5133106;27;20664;-63
2023/12/15 01:31:38;;;;;;;16.27;11.23;;;4.40;99.90;;;;;;5132974;27;20193;-62
2023/12/15 01:34:07;;;;;;;16.03;10.50;;;4.40;99.90;;;;;;5132879;27;20203;-64
2023/12/15 01:36:37;;;;;;;14.93;10.67;;;4.30;99.90;;;;;;5132593;27;20210;-63
2023/12/15 01:39:05;;;;;;;17.60;10.97;;;4.20;99.90;;;;;;5132651;27;20203;-61
2023/12/15 01:41:33;;;;;;;15.80;11.30;;;4.20;99.90;;;;;;5132620;27;20316;-64
2023/12/15 01:44:02;;;;;;;14.97;11.23;;;4.30;99.90;;;;;;5132613;27;20218;-61
2023/12/15 01:46:30;;;;;;;12.47;9.80;;;4.30;99.90;;;;;;5132687;27;20240;-62
2023/12/15 01:49:00;;;;;;;13.23;10.70;;;4.30;99.90;;;;;;5132630;27;20189;-63
2023/12/15 01:51:28;;;;;;;15.70;11.03;;;4.30;99.90;;;;;;5132574;27;20207;-64
2023/12/15 01:53:57;;;;;;;17.17;12.30;;;4.50;99.90;;;;;;5132451;27;20195;-64
2023/12/15 01:56:25;;;;;;;15.43;10.83;;;4.50;99.90;;;;;;5132369;27;20194;-65
2023/12/15 01:58:53;;;;;;;17.20;11.80;;;4.40;99.90;;;;;;5132480;27;20190;-63
2023/12/15 02:01:22;;;;;;;15.97;11.77;;;4.30;99.90;;;;;;5132324;27;20255;-64
2023/12/15 02:03:50;;;;;;;16.20;10.17;;;4.40;99.90;;;;;;5132452;27;20229;-64
2023/12/15 02:06:20;;;;;;;14.97;11.40;;;4.50;99.90;;;;;;5132244;27;20240;-66
2023/12/15 02:08:48;;;;;;;17.07;11.43;;;4.40;99.90;;;;;;5132301;27;20195;-63
2023/12/15 02:11:16;;;;;;;13.47;10.83;;;4.40;99.90;;;;;;5132248;27;20187;-64
2023/12/15 02:13:45;;;;;;;13.80;10.50;;;4.40;99.90;;;;;;5132274;27;20717;-63
2023/12/15 02:16:13;;;;;;;14.13;11.17;;;4.40;99.90;;;;;;5132316;27;20726;-65
2023/12/15 02:18:41;;;;;;;15.77;10.50;;;4.40;99.90;;;;;;5132368;27;20195;-63
2023/12/15 02:21:10;;;;;;;17.90;11.77;;;4.40;99.90;;;;;;5132068;27;20255;-63
2023/12/15 02:23:40;;;;;;;14.53;11.03;;;4.50;99.90;;;;;;5131978;27;20211;-63
2023/12/15 02:26:08;;;;;;;13.87;10.67;;;4.60;99.90;;;;;;5131356;27;20202;-65
2023/12/15 02:28:36;;;;;;;17.10;10.90;;;4.50;99.90;;;;;;5131746;27;20205;-65
2023/12/15 02:31:05;;;;;;;12.57;9.63;;;4.40;99.90;;;;;;5132150;27;20199;-66
2023/12/15 02:33:33;;;;;;;14.37;10.63;;;4.50;99.90;;;;;;5131874;27;20209;-65
2023/12/15 02:36:02;;;;;;;14.23;9.60;;;4.50;99.90;;;;;;5131618;27;20988;-65
2023/12/15 02:38:30;;;;;;;11.80;9.50;;;4.50;99.90;;;;;;5131658;27;20547;-64
2023/12/15 02:41:00;;;;;;;14.60;11.07;;;4.40;99.90;;;;;;5131354;27;20724;-64
2023/12/15 02:43:28;;;;;;;15.70;12.27;;;4.40;99.90;;;;;;5131569;27;20726;-64
2023/12/15 02:45:56;;;;;;;17.00;12.43;;;4.50;99.90;;;;;;5131540;27;20191;-64
2023/12/15 02:48:24;;;;;;;17.43;12.03;;;4.40;99.90;;;;;;5131618;27;20206;-64
2023/12/15 02:50:53;;;;;;;15.53;10.83;;;4.40;99.90;;;;;;5131389;27;20225;-65
2023/12/15 02:53:21;;;;;;;13.00;10.27;;;4.30;99.90;;;;;;5131339;27;20191;-65
2023/12/15 02:55:50;;;;;;;12.70;9.20;;;4.20;99.90;;;;;;5131332;27;20206;-65
2023/12/15 02:58:19;;;;;;;13.53;10.50;;;4.20;99.90;;;;;;5131363;27;20211;-64
2023/12/15 03:00:48;;;;;;;13.67;9.90;;;4.30;99.90;;;;;;5131247;27;20613;-60
2023/12/15 03:03:16;;;;;;;12.83;10.33;;;4.40;99.90;;;;;;5131064;27;20193;-62
2023/12/15 03:05:44;;;;;;;10.17;8.60;;;4.50;99.90;;;;;;5131075;27;20618;-63
2023/12/15 03:08:13;;;;;;;9.90;8.83;;;4.40;99.90;;;;;;5131178;27;20552;-64
2023/12/15 03:10:41;;;;;;;10.23;8.80;;;4.50;99.90;;;;;;5130997;27;20183;-64
2023/12/15 03:13:09;;;;;;;11.73;8.97;;;4.40;99.90;;;;;;5131098;27;20191;-65
2023/12/15 03:15:39;;;;;;;12.20;9.87;;;4.50;99.90;;;;;;5130942;27;20196;-64
2023/12/15 03:18:07;;;;;;;8.57;7.67;;;4.60;99.90;;;;;;5129504;27;20640;-65
2023/12/15 03:20:36;;;;;;;8.97;7.67;;;4.60;99.90;;;;;;5130681;27;20203;-63
2023/12/15 03:23:04;;;;;;;7.30;6.60;;;4.60;99.90;;;;;;5130443;27;20234;-65
2023/12/15 03:25:32;;;;;;;9.80;8.13;;;4.50;99.90;;;;;;5130727;27;20222;-65
2023/12/15 03:28:01;;;;;;;9.73;6.70;;;4.30;99.90;;;;;;5130686;27;20198;-66
2023/12/15 03:30:29;;;;;;;9.63;7.03;;;4.30;99.90;;;;;;5130780;27;20206;-63
2023/12/15 03:32:59;;;;;;;7.57;6.63;;;4.20;99.90;;;;;;5130677;27;20657;-64
2023/12/15 03:35:27;;;;;;;8.10;7.23;;;4.20;99.90;;;;;;5130568;27;20207;-64
2023/12/15 03:37:55;;;;;;;8.10;6.80;;;4.30;99.90;;;;;;5129291;27;20202;-64
2023/12/15 03:40:24;;;;;;;8.50;7.70;;;4.40;99.90;;;;;;5130364;27;20275;-63
2023/12/15 03:42:52;;;;;;;7.73;6.80;;;4.40;99.90;;;;;;5130396;27;20245;-64
2023/12/15 03:45:20;;;;;;;7.07;6.40;;;4.40;99.90;;;;;;5130466;27;20264;-65
2023/12/15 03:47:49;;;;;;;8.67;6.20;;;4.30;99.90;;;;;;5130321;27;20194;-64
2023/12/15 03:50:19;;;;;;;9.57;6.77;;;4.20;99.90;;;;;;5130286;27;20738;-65
2023/12/15 03:52:47;;;;;;;9.67;6.80;;;4.30;99.90;;;;;;5129995;27;20203;-63
2023/12/15 03:55:16;;;;;;;9.07;6.97;;;4.20;99.90;;;;;;5130374;27;20227;-64
2023/12/15 03:57:45;;;;;;;7.93;6.43;;;4.00;99.90;;;;;;5128944;27;20293;-63
2023/12/15 04:00:14;;;;;;;8.33;6.50;;;4.00;99.90;;;;;;5130277;27;20191;-65
2023/12/15 04:02:43;;;;;;;7.53;6.23;;;3.90;99.90;;;;;;5130110;27;20199;-63
2023/12/15 04:05:12;;;;;;;7.80;6.23;;;3.90;99.90;;;;;;5129992;27;20229;-64
2023/12/15 04:07:41;;;;;;;7.53;5.67;;;4.00;99.90;;;;;;5130036;27;20193;-65
2023/12/15 04:10:10;;;;;;;7.23;6.53;;;3.90;99.90;;;;;;5130123;27;20207;-63
2023/12/15 04:12:39;;;;;;;7.37;6.40;;;3.80;99.90;;;;;;5129998;27;20203;-65
2023/12/15 04:15:09;;;;;;;8.47;6.53;;;3.80;99.90;;;;;;5129973;27;20218;-64
2023/12/15 04:17:38;;;;;;;8.13;6.37;;;3.80;99.90;;;;;;5130038;28;20264;-65
2023/12/15 04:20:09;;;;;;;7.80;6.37;;;3.90;99.90;;;;;;5130166;28;20219;-64
2023/12/15 04:22:37;;;;;;;9.17;6.57;;;3.80;99.90;;;;;;5129708;28;20260;-65
2023/12/15 04:25:07;;;;;;;8.17;6.43;;;3.80;99.90;;;;;;5129864;28;20223;-64
2023/12/15 04:27:36;;;;;;;9.13;6.47;;;3.90;99.90;;;;;;5128493;28;20207;-64
2023/12/15 04:30:08;;;;;;;6.53;5.73;;;3.80;99.90;;;;;;5129822;28;20195;-64
2023/12/15 04:32:36;;;;;;;7.77;6.33;;;3.70;99.90;;;;;;5129738;28;20187;-64
2023/12/15 04:35:06;;;;;;;6.53;5.80;;;3.80;99.90;;;;;;5130001;28;20203;-65
2023/12/15 04:37:34;;;;;;;7.57;6.23;;;3.90;99.90;;;;;;5129747;27;20856;-64
2023/12/15 04:40:03;;;;;;;6.97;6.27;;;3.90;99.90;;;;;;5129879;28;20193;-63
2023/12/15 04:42:33;;;;;;;7.00;6.07;;;3.80;99.90;;;;;;5128060;28;20273;-63
2023/12/15 04:45:01;;;;;;;6.90;6.13;;;3.80;99.90;;;;;;5129501;27;20233;-64
2023/12/15 04:47:29;;;;;;;7.83;6.20;;;3.80;99.90;;;;;;5129738;28;20597;-64
2023/12/15 04:49:58;;;;;;;6.63;5.47;;;3.70;99.90;;;;;;5133141;27;20201;-64
2023/12/15 04:52:26;;;;;;;7.00;5.93;;;3.70;99.90;;;;;;5133527;27;20278;-64
2023/12/15 04:54:54;;;;;;;6.60;5.90;;;3.90;99.90;;;;;;5133987;27;20183;-65
2023/12/15 04:57:22;;;;;;;6.23;5.60;;;3.80;99.90;;;;;;5133728;27;20190;-64
2023/12/15 04:59:52;;;;;;;7.87;6.13;;;3.90;99.90;;;;;;5133653;27;20191;-63
2023/12/15 05:02:21;;;;;;;6.87;5.50;;;3.80;99.90;;;;;;5133571;27;20646;-65
2023/12/15 05:04:49;;;;;;;10.43;5.90;;;4.00;99.90;;;;;;5133337;27;20764;-65
2023/12/15 05:07:17;;;;;;;6.27;5.67;;;3.80;99.90;;;;;;5133287;27;20197;-64
2023/12/15 05:09:47;;;;;;;6.10;5.50;;;3.70;99.90;;;;;;5133417;27;20824;-64
2023/12/15 05:12:16;;;;;;;7.20;6.23;;;3.80;99.90;;;;;;5133212;27;20250;-62
2023/12/15 05:14:45;;;;;;;6.37;5.77;;;3.70;99.90;;;;;;5133612;27;20195;-64
2023/12/15 05:17:14;;;;;;;5.63;5.13;;;3.60;99.90;;;;;;5133292;27;20190;-63
2023/12/15 05:19:43;;;;;;;7.07;6.00;;;3.60;99.90;;;;;;5133296;27;20205;-62
2023/12/15 05:22:11;;;;;;;7.00;6.10;;;3.70;99.90;;;;;;5132972;27;20675;-63
2023/12/15 05:24:39;;;;;;;6.60;5.73;;;3.70;99.90;;;;;;5133121;27;20199;-63
2023/12/15 05:27:08;;;;;;;7.43;5.90;;;3.70;99.90;;;;;;5133032;27;21055;-63
2023/12/15 05:29:42;;;;;;;7.63;6.50;;;3.60;99.90;;;;;;5133325;27;20223;-64
2023/12/15 05:32:11;;;;;;;6.97;6.20;;;3.70;99.90;;;;;;5133192;27;20206;-63
2023/12/15 05:34:41;;;;;;;7.60;5.87;;;3.50;99.90;;;;;;5133157;27;20206;-63
2023/12/15 05:37:09;;;;;;;7.23;6.47;;;3.70;99.90;;;;;;5133021;27;20186;-64
2023/12/15 05:39:38;;;;;;;7.90;6.83;;;3.60;99.90;;;;;;5132860;27;20234;-64
2023/12/15 05:42:07;;;;;;;9.47;7.03;;;3.60;99.90;;;;;;5132934;27;20223;-65
2023/12/15 05:44:39;;;;;;;9.27;6.67;;;3.80;99.90;;;;;;5132943;27;20191;-64
2023/12/15 05:47:08;;;;;;;8.37;6.60;;;4.00;99.90;;;;;;5132959;27;20202;-63
2023/12/15 05:49:40;;;;;;;7.73;6.07;;;3.80;99.90;;;;;;5132832;27;20564;-65
2023/12/15 05:52:09;;;;;;;8.63;6.77;;;3.90;99.90;;;;;;5132372;27;20203;-65
2023/12/15 05:54:39;;;;;;;8.00;6.33;;;3.90;99.90;;;;;;5132647;27;20199;-64
2023/12/15 05:57:08;;;;;;;8.10;6.53;;;3.90;99.90;;;;;;5132555;27;20244;-60
2023/12/15 05:59:38;;;;;;;6.93;6.17;;;3.80;99.90;;;;;;5131538;27;20196;-65
2023/12/15 06:02:06;;;;;;;8.67;6.67;;;3.60;99.90;;;;;;5132027;27;20935;-64
2023/12/15 06:04:34;;;;;;;7.17;5.07;;;3.50;99.90;;;;;;5132248;27;20199;-63
2023/12/15 06:07:04;;;;;;;7.27;5.70;;;3.50;99.90;;;;;;5132009;27;20217;-64
2023/12/15 06:09:33;;;;;;;7.27;6.53;;;3.60;99.90;;;;;;5132413;27;20199;-61
2023/12/15 06:12:05;;;;;;;6.73;5.97;;;3.50;99.90;;;;;;5132091;27;20989;-63
2023/12/15 06:14:33;;;;;;;7.77;5.93;;;3.60;99.90;;;;;;5132223;27;20195;-64
2023/12/15 06:17:05;;;;;;;7.63;5.97;;;3.60;99.90;;;;;;5132098;27;20195;-63
2023/12/15 06:19:34;;;;;;;6.70;6.00;;;3.60;99.90;;;;;;5132186;27;20297;-63
2023/12/15 06:22:05;;;;;;;7.07;5.97;;;3.60;99.90;;;;;;5132029;27;20248;-62
2023/12/15 06:24:33;;;;;;;7.43;6.60;;;3.60;99.90;;;;;;5132237;27;20195;-63
2023/12/15 06:27:03;;;;;;;7.53;6.40;;;3.70;99.90;;;;;;5131880;27;20238;-64
2023/12/15 06:29:31;;;;;;;8.30;6.57;;;3.70;99.90;;;;;;5131926;27;20199;-63
2023/12/15 06:32:00;;;;;;;7.57;6.50;;;3.70;99.90;;;;;;5131838;27;20194;-62
2023/12/15 06:34:28;;;;;;;8.07;6.47;;;3.80;99.90;;;;;;5131724;27;20719;-61
2023/12/15 06:36:56;;;;;;;9.63;7.10;;;3.90;99.90;;;;;;5131970;27;20260;-63
2023/12/15 06:39:26;;;;;;;8.77;6.97;;;3.80;99.90;;;;;;5131666;27;20206;-62
2023/12/15 06:41:55;;;;;;;8.23;7.00;;;3.80;99.90;;;;;;5131618;27;20231;-62
2023/12/15 06:44:25;;;;;;;9.83;6.40;;;3.80;99.90;;;;;;5131580;27;20688;-62
2023/12/15 06:46:53;;;;;;;8.43;7.03;;;3.90;99.90;;;;;;5129679;27;20310;-64
2023/12/15 06:49:30;;;;;;;8.07;7.00;;;4.00;99.90;;;;;;5131554;27;20210;-64
2023/12/15 06:51:58;;;;;;;7.67;6.60;;;3.90;99.90;;;;;;5131518;27;20216;-63
2023/12/15 06:54:28;;;;;;;7.50;6.70;;;3.80;99.90;;;;;;5131129;27;20207;-61
2023/12/15 06:56:56;;;;;;;7.80;5.97;;;3.80;99.90;;;;;;5130965;27;20682;-62
2023/12/15 06:59:24;;;;;;;7.10;6.17;;;3.80;99.90;;;;;;5131126;27;20562;-64
2023/12/15 07:01:53;;;;;;;6.40;5.63;;;3.80;99.90;;;;;;5130813;27;20195;-62
2023/12/15 07:04:21;;;;;;;7.43;5.83;;;3.70;99.90;;;;;;5130693;27;20198;-63
2023/12/15 07:06:50;;;;;;;6.67;5.63;;;3.70;99.90;;;;;;5130315;27;20231;-64
2023/12/15 07:09:18;;;;;;;6.47;5.20;;;3.80;99.90;;;;;;5130363;27;20716;-64
2023/12/15 07:11:48;;;;;;;7.03;6.30;;;3.80;99.90;;;;;;5124630;27;20195;-59
2023/12/15 07:14:16;;;;;;;6.43;5.60;;;3.80;99.90;;;;;;5100391;28;20197;-61
2023/12/15 07:16:45;;;;;;;12.50;8.33;;;3.80;99.90;;;;;;5089872;28;20195;-62
2023/12/15 07:19:13;;;;;;;11.57;7.20;;;3.90;99.90;;;;;;5089848;28;20211;-63
2023/12/15 07:21:42;;;;;;;9.00;7.63;;;3.90;99.90;;;;;;5089451;28;20678;-62
2023/12/15 07:24:10;;;;;;;12.47;7.57;;;3.80;99.90;;;;;;5089512;28;20188;-60
2023/12/15 07:26:39;;;;;;;11.77;7.87;;;3.80;99.90;;;;;;5089054;28;20212;-64
2023/12/15 07:29:09;;;;;;;10.50;6.83;;;3.60;99.90;;;;;;5089726;28;20275;-63
2023/12/15 07:31:37;;;;;;;9.07;6.97;;;3.60;99.90;;;;;;5089472;28;20192;-61
2023/12/15 07:34:06;;;;;;;9.20;6.80;;;3.60;99.90;;;;;;5089627;28;20192;-63
2023/12/15 07:36:34;;;;;;;10.30;6.83;;;3.50;99.90;;;;;;5089406;28;20619;-63
2023/12/15 07:39:03;;;;;;;8.00;6.20;;;3.50;99.90;;;;;;5091833;28;20191;-60
2023/12/15 07:41:31;;;;;;;6.87;5.17;;;3.50;99.90;;;;;;5119846;27;20230;-59
2023/12/15 07:43:59;;;;;;;8.70;6.47;;;3.60;99.90;;;;;;5130319;27;20552;-59
2023/12/15 07:46:29;;;;;;;8.27;7.30;;;3.60;99.90;;;;;;5129778;27;20267;-61
2023/12/15 07:48:57;;;;;;;8.50;6.87;;;3.80;99.90;;;;;;5129902;27;20219;-63
2023/12/15 07:51:26;;;;;;;12.47;7.93;;;3.80;99.90;;;;;;5129979;27;20228;-63
2023/12/15 07:53:54;;;;;;;8.83;6.60;;;3.80;99.90;;;;;;5129702;27;20202;-60
2023/12/15 07:56:24;;;;;;;8.40;6.90;;;3.80;99.90;;;;;;5129564;27;20615;-62
2023/12/15 07:58:53;;;;;;;10.60;6.80;;;3.70;99.90;;;;;;5129913;27;20195;-61
2023/12/15 08:01:23;;;;;;;10.57;7.17;;;3.70;99.90;;;;;;5129809;27;20191;-62
2023/12/15 08:03:53;;;;;;;8.07;6.67;;;3.70;99.90;;;;;;5129740;27;20260;-61
2023/12/15 08:06:21;;;;;;;9.13;7.30;;;3.80;99.90;;;;;;5129804;27;20240;-59
2023/12/15 08:08:51;;;;;;;9.93;7.60;;;3.90;99.90;;;;;;5129303;27;20244;-60
2023/12/15 08:11:22;;;;;;;11.03;7.27;;;4.00;99.90;;;;;;5129572;27;20209;-60
2023/12/15 08:13:51;;;;;;;9.83;7.03;;;4.20;99.90;;;;;;5129885;27;20249;-60
2023/12/15 08:16:19;;;;;;;9.97;7.37;;;4.20;99.90;;;;;;5129646;27;20657;-59
2023/12/15 08:18:47;;;;;;;8.93;6.63;;;4.20;99.90;;;;;;5129578;28;20206;-60
2023/12/15 08:21:17;;;;;;;10.90;7.40;;;4.10;99.90;;;;;;5110647;28;20198;-59
2023/12/15 08:23:46;;;;;;;9.87;7.60;;;4.10;99.90;;;;;;5131038;27;20715;-59
2023/12/15 08:26:21;;;;;;;9.13;7.10;;;4.10;99.90;;;;;;5115117;27;20206;-60
2023/12/15 08:28:49;;;;;;;9.37;7.20;;;4.10;99.90;;;;;;5133977;27;20243;-59
2023/12/15 08:31:18;;;;;;;8.63;6.97;;;4.10;99.90;;;;;;5115231;27;20207;-59
2023/12/15 08:33:48;;;;;;;15.37;11.10;;;3.90;99.90;;;;;;5133877;27;20743;-59
2023/12/15 08:36:18;;;;;;;11.10;8.93;;;4.00;99.90;;;;;;5133902;27;20716;-63
2023/12/15 08:38:47;;;;;;;9.83;7.93;;;4.20;99.90;;;;;;5114546;27;20293;-63
2023/12/15 08:41:15;;;;;;;10.40;7.97;;;4.10;99.90;;;;;;5133580;27;20242;-63
2023/12/15 08:43:44;;;;;;;10.40;8.10;;;4.10;99.90;;;;;;5133557;27;20214;-64
2023/12/15 08:46:12;;;;;;;9.97;7.90;;;4.10;99.90;;;;;;5133683;27;20191;-62
2023/12/15 08:48:40;;;;;;;10.37;8.77;;;4.30;99.90;;;;;;5133247;27;20215;-63
2023/12/15 08:51:09;;;;;;;11.60;9.07;;;4.40;99.90;;;;;;5133252;27;20203;-65
2023/12/15 08:53:38;;;;;;;13.83;9.77;;;4.30;99.90;;;;;;5133025;27;20206;-64
2023/12/15 08:56:07;;;;;;;13.00;8.83;;;4.30;99.90;;;;;;5133562;27;20199;-60
2023/12/15 08:58:35;;;;;;;36.63;22.47;;;4.30;99.90;;;;;;5133481;27;20692;-62
2023/12/15 09:01:04;;;;;;;11.73;9.03;;;4.30;99.90;;;;;;5133782;27;20187;-61
2023/12/15 09:03:34;;;;;;;9.90;8.60;;;4.30;99.90;;;;;;5133190;27;20191;-62
2023/12/15 09:06:02;;;;;;;9.60;7.87;;;4.30;99.90;;;;;;5133069;27;20680;-62
2023/12/15 09:08:34;;;;;;;10.27;8.80;;;4.30;99.90;;;;;;5132842;27;20234;-61
2023/12/15 09:11:05;;;;;;;10.43;8.40;;;4.30;99.90;;;;;;5132951;27;20712;-60
2023/12/15 09:13:34;;;;;;;9.40;7.27;;;4.40;99.90;;;;;;5133127;27;20198;-61
2023/12/15 09:16:03;;;;;;;9.17;7.20;;;4.50;99.90;;;;;;5114055;27;20645;-61
2023/12/15 09:18:31;;;;;;;9.77;6.97;;;4.50;99.90;;;;;;5132940;27;20222;-61
2023/12/15 09:21:00;;;;;;;8.57;7.23;;;4.50;99.90;;;;;;5132969;27;20218;-62
2023/12/15 09:23:28;;;;;;;9.73;6.90;;;4.60;99.90;;;;;;5114281;27;20199;-61
2023/12/15 09:25:56;;;;;;;9.20;7.40;;;4.60;99.90;;;;;;5133099;27;20195;-61
2023/12/15 09:28:26;;;;;;;8.17;6.97;;;4.80;99.90;;;;;;5132879;27;20588;-62
2023/12/15 09:30:54;;;;;;;7.57;6.20;;;4.70;99.90;;;;;;5114272;27;20560;-61
2023/12/15 09:33:23;;;;;;;8.33;6.30;;;4.80;99.90;;;;;;5132708;27;20676;-61
2023/12/15 09:35:53;;;;;;;7.67;6.87;;;4.80;99.90;;;;;;5132580;27;20210;-63
2023/12/15 09:38:21;;;;;;;7.67;6.77;;;5.10;99.90;;;;;;5132448;27;20203;-62
2023/12/15 09:40:50;;;;;;;7.03;6.33;;;5.10;99.90;;;;;;5132209;27;20227;-61
2023/12/15 09:43:18;;;;;;;6.63;5.90;;;4.90;99.90;;;;;;5132470;27;20203;-61
2023/12/15 09:45:48;;;;;;;9.47;8.27;;;4.90;99.90;;;;;;5132470;27;20187;-62
2023/12/15 09:48:17;;;;;;;7.10;6.30;;;4.80;99.90;;;;;;5132537;27;20631;-62
2023/12/15 09:50:52;;;;;;;9.00;7.90;;;4.70;99.90;;;;;;5132091;27;20191;-61
2023/12/15 09:53:21;;;;;;;9.10;7.03;;;4.60;99.90;;;;;;5131868;27;20657;-62
2023/12/15 09:55:52;;;;;;;15.60;10.70;;;4.40;99.90;;;;;;5131881;27;20202;-60
2023/12/15 09:58:21;;;;;;;12.67;10.03;;;4.60;99.90;;;;;;5132011;27;20696;-61
2023/12/15 10:00:51;;;;;;;29.17;18.87;;;4.80;99.90;;;;;;5131725;27;20203;-63
2023/12/15 10:03:20;;;;;;;8.77;6.50;;;5.00;99.90;;;;;;5131872;27;20286;-62
2023/12/15 10:05:48;;;;;;;9.93;8.33;;;4.90;99.90;;;;;;5131570;27;20201;-62
2023/12/15 10:08:22;;;;;;;9.57;7.40;;;4.70;99.90;;;;;;5131709;27;20215;-61
2023/12/15 10:10:52;;;;;;;9.67;7.70;;;4.70;99.90;;;;;;5131487;27;20194;-62
2023/12/15 10:13:21;;;;;;;8.33;7.37;;;4.60;99.90;;;;;;5131566;27;20223;-62
2023/12/15 10:15:52;;;;;;;10.57;7.73;;;4.60;99.90;;;;;;5131503;27;20203;-62
2023/12/15 10:18:20;;;;;;;11.53;7.37;;;4.50;99.90;;;;;;5131429;27;20214;-61
2023/12/15 10:20:55;;;;;;;7.90;6.70;;;4.60;99.90;;;;;;5131370;27;20203;-62
2023/12/15 10:23:28;;;;;;;8.47;7.50;;;4.50;99.90;;;;;;5131157;27;20675;-62
2023/12/15 10:25:59;;;;;;;8.97;7.27;;;4.50;99.90;;;;;;5131257;27;20240;-61
2023/12/15 10:28:35;;;;;;;8.17;7.03;;;4.50;99.90;;;;;;5131065;27;20231;-62
2023/12/15 10:31:05;;;;;;;9.77;7.37;;;4.40;99.90;;;;;;5131284;27;20195;-61
2023/12/15 10:33:34;;;;;;;8.60;7.30;;;4.30;99.90;;;;;;5131082;27;20187;-61
2023/12/15 10:36:07;;;;;;;9.07;7.33;;;4.30;99.90;;;;;;5131131;27;20664;-60
2023/12/15 10:38:36;;;;;;;9.87;7.73;;;4.30;99.90;;;;;;5131172;27;20195;-62
2023/12/15 10:41:06;;;;;;;8.40;7.03;;;4.50;99.90;;;;;;5130722;27;20767;-63
2023/12/15 10:43:37;;;;;;;8.13;7.27;;;4.70;99.90;;;;;;5131152;27;20196;-62
2023/12/15 10:46:10;;;;;;;10.07;7.00;;;4.60;99.90;;;;;;5130308;27;20792;-62
2023/12/15 10:48:40;;;;;;;8.73;6.77;;;4.60;99.90;;;;;;5130878;27;20215;-62
2023/12/15 10:51:10;;;;;;;8.23;7.03;;;4.70;99.90;;;;;;5130620;27;20232;-62
2023/12/15 10:53:40;;;;;;;10.57;7.93;;;4.70;99.90;;;;;;5130811;27;20557;-63
2023/12/15 10:56:09;;;;;;;9.50;7.90;;;4.80;99.90;;;;;;5112280;27;20256;-62
2023/12/15 10:58:38;;;;;;;6.63;5.93;;;4.80;99.90;;;;;;5130748;27;20213;-62
2023/12/15 11:01:10;;;;;;;19.60;11.97;;;4.90;99.90;;;;;;5130648;27;20550;-62
2023/12/15 11:03:41;;;;;;;8.00;6.97;;;4.90;99.90;;;;;;5130677;27;20203;-63
2023/12/15 11:06:10;;;;;;;7.37;6.67;;;4.90;99.90;;;;;;5130608;27;20223;-63
2023/12/15 11:08:40;;;;;;;9.07;7.53;;;4.90;99.90;;;;;;5130537;27;20221;-64
2023/12/15 11:11:09;;;;;;;8.53;7.13;;;4.90;99.90;;;;;;5130410;27;20203;-62
2023/12/15 11:13:52;;;;;;;8.33;7.00;;;4.80;99.90;;;;;;5130427;27;20195;-62
2023/12/15 11:16:24;;;;;;;7.33;6.17;;;4.80;99.90;;;;;;5130512;27;20190;-62
2023/12/15 11:18:55;;;;;;;7.50;6.00;;;4.80;99.90;;;;;;5130439;27;20203;-61
2023/12/15 11:21:24;;;;;;;8.70;6.33;;;4.80;99.90;;;;;;5129915;27;20709;-62
2023/12/15 11:23:58;;;;;;;8.07;5.87;;;4.80;99.90;;;;;;5129997;27;20195;-61
2023/12/15 11:26:29;;;;;;;8.60;6.53;;;4.90;99.90;;;;;;5130181;27;20235;-62
2023/12/15 11:29:07;;;;;;;7.70;5.60;;;4.90;99.90;;;;;;5129885;27;20223;-63
2023/12/15 11:31:40;;;;;;;6.50;5.90;;;4.90;99.90;;;;;;5129825;27;20198;-62
2023/12/15 11:34:08;;;;;;;7.73;5.60;;;4.80;99.90;;;;;;5129954;27;20195;-61
2023/12/15 11:36:42;;;;;;;8.03;6.70;;;5.00;99.90;;;;;;5129826;27;20198;-61
2023/12/15 11:39:12;;;;;;;7.03;5.80;;;5.00;99.90;;;;;;5129722;27;20202;-62
2023/12/15 11:41:42;;;;;;;6.53;5.57;;;5.10;99.90;;;;;;5129713;27;20223;-64
2023/12/15 11:44:11;;;;;;;5.67;5.07;;;5.10;99.90;;;;;;5129859;27;20195;-65
2023/12/15 11:46:41;;;;;;;6.40;5.57;;;5.20;99.90;;;;;;5129715;27;20206;-65
2023/12/15 11:49:22;;;;;;;28.70;18.13;;;5.20;99.90;;;;;;5129756;27;20264;-65
2023/12/15 11:51:51;;;;;;;7.93;6.40;;;5.20;99.90;;;;;;5111066;27;20206;-63
2023/12/15 11:54:20;;;;;;;6.27;5.57;;;5.10;99.90;;;;;;5129412;27;20199;-63
2023/12/15 11:56:49;;;;;;;7.70;6.20;;;5.00;99.90;;;;;;5129906;27;20199;-63
2023/12/15 11:59:18;;;;;;;8.53;6.50;;;5.00;99.90;;;;;;5128895;27;20203;-64
2023/12/15 12:01:48;;;;;;;7.03;6.20;;;5.10;99.90;;;;;;5129766;27;20219;-66
2023/12/15 12:04:20;;;;;;;8.30;6.17;;;5.00;99.90;;;;;;5129484;27;20202;-64
2023/12/15 12:06:49;;;;;;;10.17;7.60;;;5.10;99.90;;;;;;5129638;27;20191;-64
2023/12/15 12:09:17;;;;;;;11.03;8.27;;;5.10;99.90;;;;;;5129392;27;20222;-65
2023/12/15 12:11:47;;;;;;;9.07;7.40;;;5.20;99.90;;;;;;5129682;27;20194;-64
2023/12/15 12:14:16;;;;;;;12.90;9.07;;;5.10;99.90;;;;;;5129697;27;20613;-62
2023/12/15 12:16:51;;;;;;;12.67;8.93;;;5.10;99.90;;;;;;5110263;27;20553;-65
2023/12/15 12:19:21;;;;;;;12.20;9.33;;;5.10;99.90;;;;;;5129591;28;20277;-63
2023/12/15 12:21:54;;;;;;;11.90;9.73;;;5.20;99.90;;;;;;5129446;28;20202;-64
2023/12/15 12:24:22;;;;;;;13.33;10.67;;;5.10;99.90;;;;;;5129421;28;20199;-65
2023/12/15 12:26:52;;;;;;;14.77;10.23;;;5.10;99.90;;;;;;5129497;28;20190;-65
2023/12/15 12:29:21;;;;;;;15.73;10.57;;;5.10;99.90;;;;;;5129177;28;20225;-64
2023/12/15 12:31:51;;;;;;;30.67;19.47;;;5.00;99.90;;;;;;5129216;28;20207;-62
2023/12/15 12:34:20;;;;;;;14.37;11.53;;;5.10;99.90;;;;;;5129363;28;20191;-65
2023/12/15 12:36:49;;;;;;;14.60;11.80;;;5.00;99.90;;;;;;5129350;28;20637;-66
2023/12/15 12:39:22;;;;;;;17.87;12.17;;;5.10;99.90;;;;;;5128995;28;20199;-65
2023/12/15 12:41:51;;;;;;;18.00;12.27;;;5.00;99.90;;;;;;5128703;28;20259;-63
2023/12/15 12:44:20;;;;;;;15.87;11.47;;;4.90;99.90;;;;;;5129215;28;20234;-61
2023/12/15 12:46:51;;;;;;;16.43;11.77;;;5.00;99.90;;;;;;5129094;28;20758;-63
2023/12/15 12:49:19;;;;;;;15.70;11.27;;;4.90;99.90;;;;;;5129217;28;20225;-64
2023/12/15 12:51:48;;;;;;;16.90;12.70;;;4.90;99.90;;;;;;5128818;28;20289;-65
2023/12/15 12:54:16;;;;;;;17.53;12.47;;;5.00;99.90;;;;;;5128865;28;20202;-63
2023/12/15 12:56:45;;;;;;;19.37;12.37;;;5.00;99.90;;;;;;5129064;28;20223;-64
2023/12/15 12:59:21;;;;;;;18.13;13.13;;;4.90;99.90;;;;;;5129142;28;20557;-64
2023/12/15 13:01:51;;;;;;;15.47;10.80;;;4.90;99.90;;;;;;5128814;28;20273;-62